Time;durP1;ratioP1;P1;durP2;ratioP2;P2;SDS_P1;SDS_P2;PMS_P1;PMS_P2;Temp;Humidity;BMP_temperature;BMP_pressure;BME280_temperature;BME280_humidity;BME280_pressure;Samples;Min_cycle;Max_cycle;Signal;HPM_P1;HPM_P2
2022/04/30 00:01:03;;;;;;;16.73;5.47;;;;;;;10.79;75.27;102366.53;5066564;28;20055;-72
2022/04/30 00:03:30;;;;;;;16.55;5.35;;;;;;;10.79;74.86;102370.13;5068535;28;20082;-73
2022/04/30 00:05:57;;;;;;;11.60;4.45;;;;;;;10.76;75.22;102364.50;5100191;28;20159;-71
2022/04/30 00:08:24;;;;;;;15.18;5.20;;;;;;;10.72;75.52;102367.19;5069795;28;20062;-72
2022/04/30 00:10:52;;;;;;;11.13;4.57;;;;;;;10.66;76.55;102363.06;5067542;28;20138;-71
2022/04/30 00:13:18;;;;;;;14.68;5.20;;;;;;;10.62;75.98;102366.91;5071766;28;20510;-72
2022/04/30 00:15:45;;;;;;;11.68;4.32;;;;;;;10.63;75.87;102357.47;5067200;28;20057;-73
2022/04/30 00:18:11;;;;;;;13.77;4.68;;;;;;;10.63;76.49;102369.31;5068969;28;20059;-71
2022/04/30 00:20:38;;;;;;;12.55;4.85;;;;;;;10.61;75.94;102359.78;5068823;28;20461;-71
2022/04/30 00:23:05;;;;;;;14.07;5.03;;;;;;;10.54;76.79;102369.50;5067378;28;20123;-71
2022/04/30 00:25:32;;;;;;;14.30;5.40;;;;;;;10.55;76.24;102367.53;5071063;28;20064;-71
2022/04/30 00:27:59;;;;;;;11.43;4.72;;;;;;;10.54;76.40;102358.44;5066025;28;20052;-72
2022/04/30 00:30:25;;;;;;;10.70;4.30;;;;;;;10.54;76.63;102360.41;5065788;28;20051;-71
2022/04/30 00:32:53;;;;;;;11.30;4.47;;;;;;;10.46;77.70;102364.94;5069390;28;20052;-73
2022/04/30 00:35:20;;;;;;;11.48;3.65;;;;;;;10.42;77.82;102350.22;5065097;28;20500;-73
2022/04/30 00:37:47;;;;;;;12.88;6.00;;;;;;;10.43;77.05;102360.13;5064054;28;20056;-71
2022/04/30 00:40:13;;;;;;;13.65;5.28;;;;;;;10.43;77.33;102354.59;5071882;28;20693;-72
2022/04/30 00:42:40;;;;;;;10.23;3.83;;;;;;;10.36;78.01;102346.13;5065869;28;20514;-72
2022/04/30 00:45:07;;;;;;;11.88;4.75;;;;;;;10.36;77.70;102345.31;5061567;28;20082;-71
2022/04/30 00:47:34;;;;;;;9.50;4.10;;;;;;;10.28;78.44;102347.09;5064500;28;20063;-71
2022/04/30 00:50:01;;;;;;;12.10;4.60;;;;;;;10.30;78.02;102347.53;5071157;28;20045;-71
2022/04/30 00:52:28;;;;;;;11.43;4.10;;;;;;;10.28;78.73;102341.56;5064109;28;20063;-73
2022/04/30 00:54:59;;;;;;;13.73;4.55;;;;;;;10.25;78.47;102342.28;5068271;28;20052;-72
2022/04/30 00:57:29;;;;;;;11.65;5.32;;;;;;;10.24;77.84;102345.41;5069406;28;20052;-72
2022/04/30 01:00:00;;;;;;;4.78;2.28;;;;;;;10.22;79.71;102343.00;5067454;28;20098;-72
2022/04/30 01:02:28;;;;;;;8.45;4.00;;;;;;;10.19;78.89;102340.94;5056204;28;20418;-72
2022/04/30 01:04:57;;;;;;;11.70;3.97;;;;;;;10.19;78.94;102346.47;5065258;28;20470;-72
2022/04/30 01:07:24;;;;;;;12.85;4.28;;;;;;;10.21;79.15;102340.56;5063706;28;20512;-73
2022/04/30 01:09:53;;;;;;;15.13;4.80;;;;;;;10.19;79.05;102346.47;5067872;28;20068;-71
2022/04/30 01:12:20;;;;;;;12.00;4.38;;;;;;;10.16;79.08;102352.69;5073450;28;20048;-72
2022/04/30 01:14:48;;;;;;;12.15;3.95;;;;;;;10.11;79.25;102347.44;5073505;28;20536;-71
2022/04/30 01:17:14;;;;;;;10.85;3.83;;;;;;;10.09;79.53;102341.44;5069176;28;20062;-72
2022/04/30 01:19:43;;;;;;;16.50;4.60;;;;;;;10.08;79.57;102334.31;5059922;28;20051;-71
2022/04/30 01:22:19;;;;;;;14.52;4.43;;;;;;;10.07;80.33;102337.44;5068647;28;20060;-72
2022/04/30 01:24:47;;;;;;;11.43;4.60;;;;;;;10.09;79.73;102344.22;5068831;28;20040;-71
2022/04/30 01:27:16;;;;;;;10.10;4.28;;;;;;;10.10;80.13;102345.81;5058862;28;20056;-71
2022/04/30 01:29:43;;;;;;;12.73;4.18;;;;;;;10.09;80.64;102341.44;5069378;28;20172;-70
2022/04/30 01:37:39;;;;;;;12.65;4.38;;;;;;;10.02;80.30;102327.41;5065953;28;20066;-71
2022/04/30 01:40:08;;;;;;;13.77;4.60;;;;;;;9.94;80.83;102339.44;5069461;28;20055;-71
2022/04/30 01:42:44;;;;;;;12.23;4.30;;;;;;;9.88;81.24;102328.97;5066877;28;20044;-71
2022/04/30 01:45:11;;;;;;;12.45;4.57;;;;;;;9.88;81.33;102334.50;5074009;28;20052;-71
2022/04/30 01:47:43;;;;;;;14.65;5.00;;;;;;;9.80;81.87;102328.00;5066352;28;20099;-71
2022/04/30 01:50:10;;;;;;;13.90;4.40;;;;;;;9.76;81.91;102329.06;5064754;28;20750;-70
2022/04/30 01:52:37;;;;;;;12.35;5.30;;;;;;;9.72;82.93;102328.94;5066556;28;20130;-73
2022/04/30 01:55:04;;;;;;;12.32;4.80;;;;;;;9.67;82.94;102323.69;5070136;28;20368;-72
2022/04/30 01:57:31;;;;;;;16.10;5.22;;;;;;;9.63;83.36;102330.25;5067902;28;20079;-72
2022/04/30 02:00:04;;;;;;;12.48;4.97;;;;;;;9.59;84.17;102323.84;5068631;28;20044;-72
2022/04/30 02:02:36;;;;;;;11.48;4.45;;;;;;;9.50;85.50;102315.69;5061934;28;20048;-72
2022/04/30 02:05:06;;;;;;;13.43;4.60;;;;;;;9.44;84.58;102317.09;5071323;28;20515;-73
2022/04/30 02:07:40;;;;;;;13.48;4.82;;;;;;;9.37;86.55;102313.31;5068313;28;20055;-70
2022/04/30 02:10:08;;;;;;;13.15;4.57;;;;;;;9.31;86.41;102310.00;5064477;28;20462;-70
2022/04/30 02:12:35;;;;;;;13.73;5.00;;;;;;;9.27;87.19;102311.88;5061359;28;20061;-71
2022/04/30 02:15:02;;;;;;;15.07;5.32;;;;;;;9.26;88.08;102313.03;5069109;28;20063;-73
2022/04/30 02:17:29;;;;;;;14.57;5.40;;;;;;;9.25;87.69;102303.09;5069236;28;20124;-71
2022/04/30 02:22:50;;;;;;;18.17;6.50;;;;;;;9.18;87.11;102297.38;5063371;28;20755;-71
2022/04/30 02:25:19;;;;;;;14.75;5.65;;;;;;;9.14;88.09;102303.94;5061212;28;20164;-71
2022/04/30 02:27:51;;;;;;;15.55;6.25;;;;;;;9.17;87.21;102297.72;5068980;28;20493;-71
2022/04/30 02:30:19;;;;;;;16.05;6.32;;;;;;;9.14;87.41;102290.97;5062822;28;20598;-73
2022/04/30 02:32:48;;;;;;;14.98;5.93;;;;;;;9.12;89.06;102293.28;5059672;28;20074;-72
2022/04/30 02:35:20;;;;;;;16.80;6.40;;;;;;;9.08;89.06;102295.09;5076676;28;20044;-72
2022/04/30 02:37:50;;;;;;;18.73;6.60;;;;;;;9.07;89.51;102292.69;5068136;28;20048;-72
2022/04/30 02:40:17;;;;;;;14.15;5.88;;;;;;;8.95;89.56;102285.28;5068540;28;20094;-73
2022/04/30 02:42:44;;;;;;;16.33;6.45;;;;;;;8.94;91.01;102291.13;5065677;28;20506;-72
2022/04/30 02:45:12;;;;;;;17.85;6.43;;;;;;;8.92;90.99;102285.97;5071975;28;20056;-72
2022/04/30 02:47:41;;;;;;;16.80;6.75;;;;;;;8.89;90.15;102283.91;5067610;28;20060;-73
2022/04/30 02:50:10;;;;;;;21.17;6.28;;;;;;;8.88;91.17;102285.03;5057857;28;20087;-72
2022/04/30 02:52:37;;;;;;;24.40;7.82;;;;;;;8.82;91.66;102278.16;5051769;28;20040;-72
2022/04/30 02:55:05;;;;;;;18.17;8.10;;;;;;;8.83;92.40;102276.19;5073423;28;20087;-72
2022/04/30 03:00:38;;;;;;;14.68;6.35;;;;;;;8.74;92.98;102268.03;5070027;28;20330;-72
2022/04/30 03:03:09;;;;;;;20.55;7.30;;;;;;;8.65;93.27;102264.63;5066315;28;20143;-72
2022/04/30 03:05:36;;;;;;;18.80;6.80;;;;;;;8.62;93.38;102268.06;5067703;28;20056;-74
2022/04/30 03:08:12;;;;;;;16.38;6.65;;;;;;;8.57;93.03;102262.78;5066163;28;20053;-72
2022/04/30 03:10:40;;;;;;;21.55;7.03;;;;;;;8.56;93.67;102263.13;5071180;28;20079;-73
2022/04/30 03:13:06;;;;;;;16.92;6.57;;;;;;;8.52;93.75;102262.19;5064825;28;20084;-72
2022/04/30 03:15:34;;;;;;;20.30;7.10;;;;;;;8.45;93.43;102265.56;5067836;28;20079;-73
2022/04/30 03:23:37;;;;;;;17.00;6.70;;;;;;;8.31;95.16;102262.34;5061152;28;20049;-71
2022/04/30 03:26:05;;;;;;;17.02;6.70;;;;;;;8.27;95.47;102261.41;5067197;28;20040;-72
2022/04/30 03:28:32;;;;;;;18.90;6.88;;;;;;;8.23;96.47;102271.50;5065624;28;20055;-72
2022/04/30 03:31:00;;;;;;;15.13;6.60;;;;;;;8.17;95.86;102255.53;5083627;28;20045;-73
2022/04/30 03:33:27;;;;;;;18.75;7.18;;;;;;;8.19;95.77;102269.75;5095960;28;20048;-72
2022/04/30 03:35:54;;;;;;;19.17;7.25;;;;;;;8.14;96.91;102268.06;5065965;28;20159;-71
2022/04/30 03:38:21;;;;;;;17.73;6.57;;;;;;;8.09;97.59;102270.22;5054415;28;20056;-72
2022/04/30 03:40:47;;;;;;;15.05;6.55;;;;;;;8.04;97.67;102269.28;5065164;28;20493;-72
2022/04/30 03:43:18;;;;;;;18.33;7.75;;;;;;;8.00;98.69;102271.13;5064344;28;20052;-71
2022/04/30 03:45:45;;;;;;;17.05;7.20;;;;;;;7.97;99.11;102265.50;5067257;28;20059;-71
2022/04/30 03:48:15;;;;;;;21.35;7.50;;;;;;;7.96;98.79;102272.16;5095705;28;20059;-72
2022/04/30 03:50:42;;;;;;;17.88;6.85;;;;;;;7.91;98.18;102261.34;5063835;28;20557;-73
2022/04/30 03:53:09;;;;;;;17.75;7.10;;;;;;;7.91;98.36;102261.34;5053529;28;20056;-71
2022/04/30 03:55:35;;;;;;;16.35;7.28;;;;;;;7.88;98.33;102267.53;5069657;28;20049;-73
2022/04/30 03:58:02;;;;;;;18.67;6.97;;;;;;;7.87;99.45;102274.22;5072974;28;20162;-72
2022/04/30 04:00:29;;;;;;;19.65;7.25;;;;;;;7.78;99.20;102268.78;5092670;28;20143;-72
2022/04/30 04:02:57;;;;;;;20.17;6.85;;;;;;;7.80;98.72;102268.47;5065351;28;20139;-71
2022/04/30 04:05:24;;;;;;;18.60;6.93;;;;;;;7.81;99.38;102270.06;5067172;28;20138;-71
2022/04/30 04:07:51;;;;;;;18.13;6.72;;;;;;;7.79;99.70;102267.66;5100622;28;20044;-72
2022/04/30 04:10:17;;;;;;;18.38;6.75;;;;;;;7.78;99.02;102274.31;5062000;28;20155;-73
2022/04/30 04:12:44;;;;;;;17.70;6.90;;;;;;;7.75;99.38;102260.41;5064193;28;20150;-71
2022/04/30 04:17:55;;;;;;;24.20;7.35;;;;;;;7.74;100.00;102269.81;5064633;28;20135;-71
2022/04/30 04:20:24;;;;;;;19.35;7.05;;;;;;;7.71;100.00;102276.00;5053839;28;20058;-72
2022/04/30 04:22:54;;;;;;;18.67;7.13;;;;;;;7.70;100.00;102277.16;5069066;28;20051;-71
2022/04/30 04:28:07;;;;;;;;;;;;;;;7.64;100.00;102278.50;5066863;28;20106;-72
2022/04/30 04:30:34;;;;;;;17.73;6.57;;;;;;;7.66;100.00;102278.97;5067331;28;20532;-72
2022/04/30 04:33:01;;;;;;;18.63;7.80;;;;;;;7.68;100.00;102282.19;5060921;28;20406;-71
2022/04/30 04:35:28;;;;;;;18.67;8.02;;;;;;;7.71;100.00;102276.81;5065004;28;20131;-72
2022/04/30 04:37:55;;;;;;;16.67;7.22;;;;;;;7.73;100.00;102273.72;5070652;28;20054;-73
2022/04/30 04:40:21;;;;;;;18.58;7.15;;;;;;;7.73;100.00;102270.97;5088669;28;20045;-72
2022/04/30 04:42:48;;;;;;;19.08;8.07;;;;;;;7.74;100.00;102264.31;5046335;28;20049;-72
2022/04/30 04:45:14;;;;;;;21.52;8.18;;;;;;;7.79;100.00;102278.66;5051066;28;20072;-71
2022/04/30 04:47:43;;;;;;;21.23;7.85;;;;;;;7.79;100.00;102283.38;5064373;28;20520;-71
2022/04/30 04:50:12;;;;;;;22.05;8.25;;;;;;;7.85;100.00;102282.00;5074597;28;20052;-71
2022/04/30 04:52:40;;;;;;;18.40;7.68;;;;;;;7.88;100.00;102284.09;5062686;28;20127;-72
2022/04/30 04:55:07;;;;;;;18.73;6.80;;;;;;;7.91;100.00;102286.16;5070562;28;20057;-71
2022/04/30 04:57:33;;;;;;;19.35;7.25;;;;;;;7.95;100.00;102292.59;5081265;28;20048;-71
2022/04/30 05:00:00;;;;;;;17.33;6.90;;;;;;;7.95;100.00;102279.63;5068615;28;20124;-71
2022/04/30 05:02:26;;;;;;;17.55;6.97;;;;;;;7.99;100.00;102290.75;5059830;28;20536;-72
2022/04/30 05:04:53;;;;;;;14.65;6.65;;;;;;;8.03;100.00;102299.94;5068859;28;20679;-73
2022/04/30 05:07:20;;;;;;;22.05;7.18;;;;;;;8.08;100.00;102302.50;5067035;28;20075;-72
2022/04/30 05:09:46;;;;;;;21.27;7.10;;;;;;;8.13;100.00;102298.72;5079261;28;20614;-72
2022/04/30 05:12:13;;;;;;;18.48;8.43;;;;;;;8.16;100.00;102298.81;5070971;28;20077;-72
2022/04/30 05:14:39;;;;;;;19.13;7.85;;;;;;;8.21;100.00;102295.84;5066673;28;20508;-72
2022/04/30 05:17:07;;;;;;;18.38;7.75;;;;;;;8.26;100.00;102295.66;5069781;28;20504;-71
2022/04/30 05:19:34;;;;;;;17.55;7.53;;;;;;;8.32;100.00;102301.75;5064273;28;20044;-72
2022/04/30 05:22:01;;;;;;;20.55;7.28;;;;;;;8.33;100.00;102297.84;5054236;28;20036;-72
2022/04/30 05:24:28;;;;;;;19.60;7.20;;;;;;;8.33;100.00;102303.38;5068375;28;20127;-72
2022/04/30 05:26:55;;;;;;;19.73;7.05;;;;;;;8.39;100.00;102300.03;5067726;28;20493;-73
2022/04/30 05:29:21;;;;;;;19.33;6.82;;;;;;;8.45;100.00;102304.19;5065848;28;20448;-73
2022/04/30 05:31:48;;;;;;;21.40;8.38;;;;;;;8.49;100.00;102313.38;5067655;28;20060;-72
2022/04/30 05:34:15;;;;;;;19.20;6.97;;;;;;;8.56;100.00;102305.31;5069643;28;20052;-75
2022/04/30 05:36:41;;;;;;;23.48;8.52;;;;;;;8.61;100.00;102310.59;5073246;28;20451;-73
2022/04/30 05:39:09;;;;;;;19.50;7.65;;;;;;;8.70;100.00;102304.94;5066567;28;20048;-71
2022/04/30 05:41:35;;;;;;;17.98;7.35;;;;;;;8.81;100.00;102308.88;5057992;28;20126;-73
2022/04/30 05:44:02;;;;;;;18.90;7.63;;;;;;;8.84;100.00;102308.19;5066007;28;20052;-73
2022/04/30 05:46:28;;;;;;;20.02;6.78;;;;;;;8.86;100.00;102305.84;5068387;28;20095;-72
2022/04/30 05:48:55;;;;;;;17.80;7.60;;;;;;;8.95;100.00;102307.34;5068869;28;20504;-72
2022/04/30 05:51:21;;;;;;;20.02;6.97;;;;;;;9.02;100.00;102310.31;5060058;28;20052;-73
2022/04/30 05:53:48;;;;;;;18.92;8.13;;;;;;;9.04;100.00;102309.97;5073256;28;20048;-73
2022/04/30 05:56:15;;;;;;;16.05;6.78;;;;;;;9.12;100.00;102312.63;5062522;28;20083;-72
2022/04/30 05:58:41;;;;;;;22.33;7.93;;;;;;;9.17;100.00;102314.31;5067748;28;20509;-72
2022/04/30 06:01:08;;;;;;;19.70;7.68;;;;;;;9.23;100.00;102318.44;5065972;28;20079;-72
2022/04/30 06:03:35;;;;;;;21.60;6.38;;;;;;;9.28;100.00;102315.44;5064828;28;20506;-74
2022/04/30 06:06:03;;;;;;;23.50;7.70;;;;;;;9.28;100.00;102309.91;5058123;28;20102;-72
2022/04/30 06:08:29;;;;;;;21.10;6.43;;;;;;;9.30;100.00;102313.13;5060670;28;20086;-73
2022/04/30 06:10:56;;;;;;;19.83;7.05;;;;;;;9.34;100.00;102317.59;5055704;28;20135;-73
2022/04/30 06:13:23;;;;;;;16.35;6.97;;;;;;;9.40;100.00;102318.16;5096448;28;20056;-74
2022/04/30 06:15:50;;;;;;;17.85;6.15;;;;;;;9.47;100.00;102318.34;5070129;28;20152;-73
2022/04/30 06:18:17;;;;;;;16.98;6.88;;;;;;;9.55;100.00;102322.94;5064933;28;20636;-73
2022/04/30 06:20:44;;;;;;;18.95;7.15;;;;;;;9.61;100.00;102316.78;5061103;28;20072;-74
2022/04/30 06:23:10;;;;;;;19.30;6.65;;;;;;;9.68;100.00;102322.53;5067215;28;20164;-73
2022/04/30 06:25:37;;;;;;;21.50;7.38;;;;;;;9.77;100.00;102325.94;5073407;28;20079;-74
2022/04/30 06:28:04;;;;;;;18.80;6.97;;;;;;;9.83;100.00;102324.50;5067663;28;20685;-74
2022/04/30 06:30:30;;;;;;;18.02;7.10;;;;;;;9.92;100.00;102327.91;5068437;28;20131;-73
2022/04/30 06:32:57;;;;;;;20.13;6.78;;;;;;;9.99;100.00;102317.06;5067619;28;20048;-73
2022/04/30 06:35:23;;;;;;;18.08;7.15;;;;;;;10.05;100.00;102321.16;5068445;28;20075;-73
2022/04/30 06:37:50;;;;;;;16.70;6.78;;;;;;;10.13;100.00;102325.75;5067607;28;20071;-74
2022/04/30 06:40:16;;;;;;;18.10;6.68;;;;;;;10.08;99.73;102317.72;5065038;28;20055;-72
2022/04/30 06:42:44;;;;;;;21.40;5.78;;;;;;;10.10;99.52;102323.69;5069884;28;20674;-73
2022/04/30 06:45:12;;;;;;;17.67;6.68;;;;;;;10.16;99.32;102319.50;5068703;28;20044;-73
2022/04/30 06:47:40;;;;;;;19.60;6.43;;;;;;;10.18;98.82;102328.25;5067034;28;20431;-73
2022/04/30 06:50:07;;;;;;;16.83;5.93;;;;;;;10.16;98.54;102322.28;5067517;28;20684;-74
2022/04/30 06:52:34;;;;;;;17.55;6.28;;;;;;;10.25;98.65;102328.44;5067586;28;20044;-73
2022/04/30 06:57:48;;;;;;;16.52;6.20;;;;;;;10.49;98.26;102321.91;5066724;28;20131;-73
2022/04/30 07:02:59;;;;;;;17.95;6.38;;;;;;;10.82;96.04;102311.25;5062047;28;20131;-72
2022/04/30 07:05:27;;;;;;;11.85;4.45;;;;;;;10.93;94.80;102311.50;5072020;28;20094;-73
2022/04/30 07:07:53;;;;;;;22.50;6.82;;;;;;;10.98;93.88;102313.97;5069120;28;20159;-73
2022/04/30 07:10:20;;;;;;;14.63;4.40;;;;;;;10.99;93.86;102315.56;5063522;28;20083;-73
2022/04/30 07:12:48;;;;;;;23.60;6.78;;;;;;;11.07;92.87;102314.59;5071164;28;20058;-75
2022/04/30 07:15:14;;;;;;;10.07;3.25;;;;;;;11.11;93.89;102319.06;5064659;28;20544;-72
2022/04/30 07:17:41;;;;;;;18.30;7.32;;;;;;;11.04;89.24;102318.09;5064434;28;20496;-74
2022/04/30 07:20:09;;;;;;;15.85;5.30;;;;;;;11.03;89.35;102316.47;5066881;28;20056;-72
2022/04/30 07:22:36;;;;;;;11.80;3.72;;;;;;;11.09;89.56;102315.00;5060708;28;20047;-73
2022/04/30 07:25:05;;;;;;;13.30;5.68;;;;;;;11.15;87.11;102317.16;5065101;28;20167;-73
2022/04/30 07:27:31;;;;;;;17.88;6.68;;;;;;;11.21;87.55;102314.91;5059278;28;20046;-74
2022/04/30 07:29:58;;;;;;;13.93;5.22;;;;;;;11.34;87.67;102317.16;5063953;28;20048;-74
2022/04/30 07:32:24;;;;;;;10.18;4.40;;;;;;;11.43;85.79;102317.75;5061879;28;20059;-73
2022/04/30 07:34:54;;;;;;;15.88;4.85;;;;;;;11.44;84.94;102313.03;5064817;28;20627;-73
2022/04/30 07:37:20;;;;;;;15.70;5.30;;;;;;;11.51;84.14;102310.38;5074576;28;20094;-73
2022/04/30 07:39:47;;;;;;;18.98;5.47;;;;;;;11.56;83.51;102324.75;5075557;28;20058;-73
2022/04/30 07:42:13;;;;;;;12.98;4.90;;;;;;;11.50;81.81;102325.41;5065623;28;20044;-73
2022/04/30 07:44:40;;;;;;;15.15;5.20;;;;;;;11.45;79.90;102320.16;5062893;28;20116;-73
2022/04/30 07:47:08;;;;;;;15.52;6.05;;;;;;;11.43;80.83;102319.72;5062265;28;20535;-73
2022/04/30 07:49:36;;;;;;;19.17;5.85;;;;;;;11.45;81.45;102320.16;5073031;28;20086;-74
2022/04/30 07:52:03;;;;;;;17.00;6.03;;;;;;;11.44;81.02;102315.78;5067861;28;20134;-74
2022/04/30 07:54:30;;;;;;;18.33;6.72;;;;;;;11.45;81.33;102323.75;5068765;28;20524;-74
2022/04/30 07:56:58;;;;;;;22.65;6.20;;;;;;;11.60;81.83;102319.25;5064119;28;20047;-74
2022/04/30 07:59:25;;;;;;;16.92;6.40;;;;;;;11.64;81.03;102320.19;5061523;28;20048;-74
2022/04/30 08:01:52;;;;;;;13.45;5.47;;;;;;;11.60;76.83;102313.72;5061885;28;20068;-75
2022/04/30 08:04:20;;;;;;;13.82;5.65;;;;;;;11.71;77.90;102309.25;5067778;28;20048;-74
2022/04/30 08:06:46;;;;;;;13.77;5.60;;;;;;;11.82;76.36;102315.78;5060878;28;20748;-76
2022/04/30 08:09:13;;;;;;;15.93;5.85;;;;;;;11.91;75.07;102314.38;5066898;28;20130;-74
2022/04/30 08:11:41;;;;;;;16.95;5.82;;;;;;;12.03;74.89;102311.44;5062580;28;21467;-73
2022/04/30 08:14:08;;;;;;;14.27;5.03;;;;;;;12.05;72.23;102309.09;5061121;28;20053;-74
2022/04/30 08:16:35;;;;;;;14.32;4.40;;;;;;;11.98;69.88;102314.50;5061941;28;20049;-73
2022/04/30 08:19:02;;;;;;;11.73;4.93;;;;;;;12.02;70.83;102309.03;5068574;28;20079;-73
2022/04/30 08:21:28;;;;;;;11.65;4.72;;;;;;;11.99;69.44;102307.81;5075579;28;20056;-74
2022/04/30 08:23:55;;;;;;;13.07;4.50;;;;;;;12.03;69.15;102305.88;5068266;28;20052;-74
2022/04/30 08:26:22;;;;;;;14.40;5.53;;;;;;;12.11;68.23;102302.06;5070150;28;21902;-73
2022/04/30 08:28:48;;;;;;;14.75;5.40;;;;;;;12.18;67.68;102306.91;5072384;28;20110;-74
2022/04/30 08:31:15;;;;;;;14.50;5.18;;;;;;;12.24;66.96;102303.47;5067889;28;20135;-77
2022/04/30 08:33:41;;;;;;;13.38;4.70;;;;;;;12.33;66.71;102309.59;5063869;28;20043;-73
2022/04/30 08:36:08;;;;;;;10.77;4.55;;;;;;;12.36;66.76;102300.50;5073627;28;20139;-75
2022/04/30 08:38:34;;;;;;;12.43;5.35;;;;;;;12.50;66.52;102305.50;5064766;28;20057;-74
2022/04/30 08:41:01;;;;;;;14.55;4.88;;;;;;;12.54;67.27;102304.38;5068353;28;20141;-75
2022/04/30 08:43:30;;;;;;;15.10;5.35;;;;;;;12.70;67.47;102304.22;5073060;28;20243;-75
2022/04/30 08:45:59;;;;;;;12.23;4.15;;;;;;;12.73;63.99;102306.28;5070405;28;20053;-74
2022/04/30 08:48:27;;;;;;;12.18;4.18;;;;;;;12.79;62.09;102294.44;5063440;28;20055;-74
2022/04/30 08:50:54;;;;;;;9.65;3.67;;;;;;;12.99;63.51;102295.97;5064504;28;20073;-72
2022/04/30 08:53:20;;;;;;;12.35;4.13;;;;;;;13.18;62.11;102291.44;5063963;28;20040;-74
2022/04/30 08:55:47;;;;;;;10.23;4.57;;;;;;;13.30;60.19;102289.25;5067993;28;20052;-76
2022/04/30 08:58:15;;;;;;;11.82;4.38;;;;;;;13.45;61.28;102285.44;5073501;28;20051;-74
2022/04/30 09:00:44;;;;;;;9.63;3.88;;;;;;;13.65;59.88;102289.66;5067847;28;20563;-75
2022/04/30 09:03:15;;;;;;;16.35;6.15;;;;;;;13.72;58.37;102289.72;5068070;28;20485;-74
2022/04/30 09:05:42;;;;;;;11.27;3.60;;;;;;;13.68;56.92;102288.91;5068948;28;20215;-76
2022/04/30 09:08:09;;;;;;;11.93;5.65;;;;;;;13.65;57.19;102281.31;5069030;28;20509;-75
2022/04/30 09:10:41;;;;;;;8.40;3.17;;;;;;;13.55;55.89;102279.22;5098012;27;20135;-74
2022/04/30 09:13:10;;;;;;;24.35;6.03;;;;;;;13.67;57.95;102280.94;5069262;28;20504;-75
2022/04/30 09:15:39;;;;;;;15.07;4.72;;;;;;;13.75;57.44;102263.13;5071870;28;20040;-75
2022/04/30 09:18:10;;;;;;;9.85;4.20;;;;;;;13.89;54.76;102266.06;5067996;28;20048;-74
2022/04/30 09:20:44;;;;;;;12.32;4.38;;;;;;;14.08;54.68;102272.22;5073894;28;20056;-75
2022/04/30 09:23:10;;;;;;;11.48;3.83;;;;;;;14.26;53.74;102262.06;5071052;28;20052;-74
2022/04/30 09:25:48;;;;;;;8.43;3.65;;;;;;;14.27;52.21;102262.84;5076485;28;20075;-72
2022/04/30 09:28:26;;;;;;;10.13;3.78;;;;;;;14.47;52.60;102266.97;5071228;28;20052;-73
2022/04/30 09:31:06;;;;;;;12.38;3.85;;;;;;;14.57;51.52;102267.06;5065173;28;20044;-74
2022/04/30 09:33:35;;;;;;;12.80;3.90;;;;;;;14.66;51.23;102261.97;5066564;28;20366;-74
2022/04/30 09:38:53;;;;;;;12.70;5.13;;;;;;;14.90;51.55;102263.31;5070177;28;20118;-74
2022/04/30 09:41:25;;;;;;;11.55;4.22;;;;;;;14.90;50.92;102258.53;5067408;28;20055;-74
2022/04/30 09:44:07;;;;;;;12.55;4.80;;;;;;;14.98;51.02;102264.94;5066765;28;20110;-74
2022/04/30 09:46:36;;;;;;;12.95;4.97;;;;;;;14.96;50.94;102262.53;5065878;28;20076;-74
2022/04/30 09:54:36;;;;;;;9.45;3.90;;;;;;;15.20;49.47;102253.50;5066230;28;20139;-74
2022/04/30 09:57:10;;;;;;;11.35;4.60;;;;;;;15.32;49.67;102250.34;5076957;28;20139;-73
2022/04/30 09:59:41;;;;;;;9.23;4.70;;;;;;;15.37;49.99;102252.81;5066722;28;20131;-73
2022/04/30 10:02:10;;;;;;;12.52;4.53;;;;;;;15.35;49.22;102249.56;5068635;28;20052;-73
2022/04/30 10:04:37;;;;;;;8.10;3.75;;;;;;;15.52;49.15;102248.84;5069496;28;20137;-75
2022/04/30 10:07:06;;;;;;;12.65;4.50;;;;;;;15.63;48.21;102251.69;5064076;28;20672;-74
2022/04/30 10:09:44;;;;;;;13.20;4.38;;;;;;;15.64;46.88;102252.47;5058869;28;20052;-75
2022/04/30 10:12:35;;;;;;;9.50;4.00;;;;;;;15.71;47.10;102249.69;5063072;28;20428;-75
2022/04/30 10:15:27;;;;;;;11.43;4.40;;;;;;;15.76;46.51;102254.91;5063445;28;20049;-73
2022/04/30 10:17:56;;;;;;;11.38;4.57;;;;;;;15.95;47.72;102240.56;5063634;28;20080;-74
2022/04/30 10:20:32;;;;;;;8.40;4.00;;;;;;;16.20;48.60;102236.56;5069755;28;20077;-73
2022/04/30 10:23:01;;;;;;;10.75;4.35;;;;;;;16.15;46.57;102244.56;5060454;28;20068;-72
2022/04/30 10:25:43;;;;;;;9.27;4.40;;;;;;;16.26;46.82;102234.22;5067957;28;20052;-74
2022/04/30 10:28:15;;;;;;;12.30;5.38;;;;;;;16.36;46.07;102238.97;5062893;28;20517;-73
2022/04/30 10:30:43;;;;;;;9.25;3.95;;;;;;;16.60;45.61;102243.78;5062059;28;20049;-75
2022/04/30 10:33:11;;;;;;;10.27;3.60;;;;;;;16.78;45.53;102236.94;5064788;28;20247;-71
2022/04/30 10:35:45;;;;;;;11.07;4.03;;;;;;;16.99;45.04;102230.50;5067977;28;20135;-73
2022/04/30 10:38:16;;;;;;;12.63;4.75;;;;;;;17.22;45.05;102233.59;5056097;28;20473;-72
2022/04/30 10:40:45;;;;;;;10.05;4.03;;;;;;;17.42;44.17;102227.13;5065413;28;20063;-72
2022/04/30 10:43:19;;;;;;;11.20;4.68;;;;;;;17.49;43.67;102227.06;5067643;28;20072;-72
2022/04/30 10:45:46;;;;;;;11.25;3.70;;;;;;;17.34;43.23;102225.53;5069874;28;20147;-73
2022/04/30 10:48:13;;;;;;;6.63;2.80;;;;;;;17.32;42.00;102213.19;5074216;28;20114;-74
2022/04/30 10:50:40;;;;;;;6.70;3.65;;;;;;;17.23;41.31;102218.41;5069930;28;20461;-73
2022/04/30 10:53:09;;;;;;;7.65;3.13;;;;;;;17.29;41.82;102213.97;5069547;28;20052;-72
2022/04/30 10:55:38;;;;;;;9.60;3.70;;;;;;;17.35;41.54;102207.53;5070266;28;20040;-73
2022/04/30 10:58:05;;;;;;;11.00;3.50;;;;;;;17.39;41.47;102207.53;5070304;28;20587;-75
2022/04/30 11:00:32;;;;;;;7.72;3.40;;;;;;;17.58;41.57;102204.25;5076156;28;20127;-74
2022/04/30 11:03:09;;;;;;;6.28;3.03;;;;;;;17.76;40.31;102199.34;5076045;28;20490;-73
2022/04/30 11:05:36;;;;;;;7.32;3.75;;;;;;;17.86;40.95;102196.44;5072201;28;20056;-73
2022/04/30 11:08:03;;;;;;;4.53;2.47;;;;;;;17.85;40.52;102185.66;5067649;28;20048;-75
2022/04/30 11:10:31;;;;;;;6.80;2.63;;;;;;;17.82;39.94;102197.69;5061672;28;20059;-74
2022/04/30 11:13:07;;;;;;;10.10;3.28;;;;;;;17.93;39.39;102198.41;5065311;28;20128;-76
2022/04/30 11:15:33;;;;;;;8.73;3.65;;;;;;;18.15;38.84;102183.00;5058408;28;20455;-77
2022/04/30 11:18:00;;;;;;;7.47;3.20;;;;;;;18.24;38.80;102190.94;5054467;28;20053;-74
2022/04/30 11:20:27;;;;;;;6.70;3.30;;;;;;;18.28;38.54;102184.09;5054473;28;20171;-75
2022/04/30 11:23:00;;;;;;;9.50;3.65;;;;;;;18.37;37.08;102178.84;5064501;28;20036;-75
2022/04/30 11:25:38;;;;;;;8.55;3.33;;;;;;;18.39;38.31;102176.38;5054996;28;20073;-75
2022/04/30 11:28:10;;;;;;;6.60;3.03;;;;;;;18.56;36.83;102180.25;5052380;28;20477;-75
2022/04/30 11:30:38;;;;;;;6.95;2.92;;;;;;;18.77;37.51;102169.59;5068316;28;20062;-74
2022/04/30 11:33:06;;;;;;;5.45;2.88;;;;;;;18.89;36.46;102155.00;5074471;28;20063;-74
2022/04/30 11:35:33;;;;;;;7.95;3.40;;;;;;;18.91;37.11;102163.78;5053609;28;20274;-75
2022/04/30 11:38:00;;;;;;;6.47;3.20;;;;;;;19.04;36.91;102156.38;5068298;28;20152;-74
2022/04/30 11:40:27;;;;;;;7.88;3.90;;;;;;;19.34;37.06;102164.81;5050399;28;20091;-75
2022/04/30 11:42:58;;;;;;;7.72;3.60;;;;;;;19.52;36.83;102144.94;5048612;28;20646;-74
2022/04/30 11:45:32;;;;;;;8.00;3.45;;;;;;;19.48;36.10;102141.38;5048703;28;20198;-75
2022/04/30 11:47:59;;;;;;;7.40;3.80;;;;;;;19.45;36.64;102145.03;5050061;28;20176;-76
2022/04/30 11:50:27;;;;;;;9.23;3.75;;;;;;;19.20;36.98;102147.38;5048974;28;20583;-73
2022/04/30 11:52:55;;;;;;;6.32;3.45;;;;;;;19.14;36.75;102147.03;5049858;28;20053;-74
2022/04/30 11:55:22;;;;;;;6.45;3.13;;;;;;;18.99;36.82;102137.22;5053060;28;20052;-75
2022/04/30 11:57:49;;;;;;;13.13;3.75;;;;;;;18.89;36.80;102138.16;5052813;28;20049;-75
2022/04/30 12:00:18;;;;;;;8.40;2.97;;;;;;;18.72;36.49;102136.38;5065614;28;20098;-74